sensor_id;sensor_type;location;lat;lon;timestamp;pressure;altitude;pressure_sealevel;temperature;humidity
35443;BME280;21561;55.654;37.592;2024-01-15T00:00:58;97257.41;;;-10.02;100.00
35443;BME280;21561;55.654;37.592;2024-01-15T00:03:25;97259.91;;;-10.02;100.00
35443;BME280;21561;55.654;37.592;2024-01-15T00:05:52;97247.41;;;-10.01;100.00
35443;BME280;21561;55.654;37.592;2024-01-15T00:08:19;97244.97;;;-9.99;100.00
35443;BME280;21561;55.654;37.592;2024-01-15T00:10:46;97240.75;;;-10.00;100.00
35443;BME280;21561;55.654;37.592;2024-01-15T00:13:13;97250.78;;;-10.00;100.00
35443;BME280;21561;55.654;37.592;2024-01-15T00:15:39;97235.78;;;-9.99;100.00
35443;BME280;21561;55.654;37.592;2024-01-15T00:18:06;97241.69;;;-9.96;100.00
35443;BME280;21561;55.654;37.592;2024-01-15T00:20:34;97244.31;;;-9.93;100.00
35443;BME280;21561;55.654;37.592;2024-01-15T00:23:01;97231.78;;;-9.93;100.00
35443;BME280;21561;55.654;37.592;2024-01-15T00:25:28;97235.25;;;-9.90;100.00
35443;BME280;21561;55.654;37.592;2024-01-15T00:27:55;97231.97;;;-9.87;100.00
35443;BME280;21561;55.654;37.592;2024-01-15T00:30:22;97233.75;;;-9.85;100.00
35443;BME280;21561;55.654;37.592;2024-01-15T00:32:49;97227.13;;;-9.83;100.00
35443;BME280;21561;55.654;37.592;2024-01-15T00:35:16;97227.91;;;-9.84;100.00
35443;BME280;21561;55.654;37.592;2024-01-15T00:37:43;97220.38;;;-9.84;100.00
35443;BME280;21561;55.654;37.592;2024-01-15T00:40:10;97218.78;;;-9.82;100.00
35443;BME280;21561;55.654;37.592;2024-01-15T00:42:37;97223.00;;;-9.81;100.00
35443;BME280;21561;55.654;37.592;2024-01-15T00:45:04;97206.50;;;-9.74;100.00
35443;BME280;21561;55.654;37.592;2024-01-15T00:47:33;97212.38;;;-9.73;100.00
35443;BME280;21561;55.654;37.592;2024-01-15T00:50:01;97207.34;;;-9.73;100.00
35443;BME280;21561;55.654;37.592;2024-01-15T00:52:30;97210.88;;;-9.68;100.00
35443;BME280;21561;55.654;37.592;2024-01-15T00:54:57;97211.81;;;-9.65;100.00
35443;BME280;21561;55.654;37.592;2024-01-15T00:57:24;97206.09;;;-9.61;100.00
35443;BME280;21561;55.654;37.592;2024-01-15T00:59:50;97201.00;;;-9.62;100.00
35443;BME280;21561;55.654;37.592;2024-01-15T01:02:17;97212.00;;;-9.58;100.00
35443;BME280;21561;55.654;37.592;2024-01-15T01:04:44;97209.56;;;-9.57;100.00
35443;BME280;21561;55.654;37.592;2024-01-15T01:07:11;97204.63;;;-9.54;100.00
35443;BME280;21561;55.654;37.592;2024-01-15T01:09:38;97201.41;;;-9.50;100.00
35443;BME280;21561;55.654;37.592;2024-01-15T01:12:05;97202.31;;;-9.48;100.00
35443;BME280;21561;55.654;37.592;2024-01-15T01:14:33;97193.28;;;-9.43;100.00
35443;BME280;21561;55.654;37.592;2024-01-15T01:16:59;97185.78;;;-9.41;100.00
35443;BME280;21561;55.654;37.592;2024-01-15T01:19:26;97193.38;;;-9.39;100.00
35443;BME280;21561;55.654;37.592;2024-01-15T01:21:53;97186.75;;;-9.37;100.00
35443;BME280;21561;55.654;37.592;2024-01-15T01:24:20;97183.44;;;-9.35;100.00
35443;BME280;21561;55.654;37.592;2024-01-15T01:26:47;97181.81;;;-9.34;100.00
35443;BME280;21561;55.654;37.592;2024-01-15T01:29:15;97175.19;;;-9.32;100.00
35443;BME280;21561;55.654;37.592;2024-01-15T01:31:46;97174.41;;;-9.30;100.00
35443;BME280;21561;55.654;37.592;2024-01-15T01:34:14;97166.09;;;-9.29;100.00
35443;BME280;21561;55.654;37.592;2024-01-15T01:36:42;97166.94;;;-9.28;100.00
35443;BME280;21561;55.654;37.592;2024-01-15T01:39:10;97165.31;;;-9.26;100.00
35443;BME280;21561;55.654;37.592;2024-01-15T01:41:38;97163.69;;;-9.24;100.00
35443;BME280;21561;55.654;37.592;2024-01-15T01:44:05;97159.63;;;-9.21;100.00
35443;BME280;21561;55.654;37.592;2024-01-15T01:46:34;97170.59;;;-9.17;100.00
35443;BME280;21561;55.654;37.592;2024-01-15T01:49:07;97162.28;;;-9.16;100.00
35443;BME280;21561;55.654;37.592;2024-01-15T01:51:36;97154.78;;;-9.14;100.00
35443;BME280;21561;55.654;37.592;2024-01-15T01:54:04;97156.47;;;-9.13;100.00
35443;BME280;21561;55.654;37.592;2024-01-15T01:56:33;97148.25;;;-9.09;100.00
35443;BME280;21561;55.654;37.592;2024-01-15T01:59:02;97145.78;;;-9.08;100.00
35443;BME280;21561;55.654;37.592;2024-01-15T02:01:31;97147.47;;;-9.07;100.00
35443;BME280;21561;55.654;37.592;2024-01-15T02:03:58;97141.66;;;-9.06;100.00
35443;BME280;21561;55.654;37.592;2024-01-15T02:06:25;97149.25;;;-9.03;100.00
35443;BME280;21561;55.654;37.592;2024-01-15T02:08:53;97137.63;;;-9.00;100.00
35443;BME280;21561;55.654;37.592;2024-01-15T02:11:20;97136.78;;;-8.99;100.00
35443;BME280;21561;55.654;37.592;2024-01-15T02:13:47;97131.03;;;-8.95;100.00
35443;BME280;21561;55.654;37.592;2024-01-15T02:16:14;97132.75;;;-8.94;100.00
35443;BME280;21561;55.654;37.592;2024-01-15T02:18:43;97132.75;;;-8.94;100.00
35443;BME280;21561;55.654;37.592;2024-01-15T02:21:31;97142.97;;;-8.88;100.00
35443;BME280;21561;55.654;37.592;2024-01-15T02:23:58;97136.34;;;-8.86;100.00
35443;BME280;21561;55.654;37.592;2024-01-15T02:26:26;97142.28;;;-8.84;100.00
35443;BME280;21561;55.654;37.592;2024-01-15T02:28:53;97131.41;;;-8.83;100.00
35443;BME280;21561;55.654;37.592;2024-01-15T02:31:20;97138.25;;;-8.79;100.00
35443;BME280;21561;55.654;37.592;2024-01-15T02:33:47;97129.88;;;-8.78;100.00
35443;BME280;21561;55.654;37.592;2024-01-15T02:36:15;97138.28;;;-8.76;100.00
35443;BME280;21561;55.654;37.592;2024-01-15T02:38:43;97135.88;;;-8.73;100.00
35443;BME280;21561;55.654;37.592;2024-01-15T02:41:10;97135.13;;;-8.70;100.00
35443;BME280;21561;55.654;37.592;2024-01-15T02:43:36;97134.41;;;-8.66;100.00
35443;BME280;21561;55.654;37.592;2024-01-15T02:46:03;97131.16;;;-8.62;100.00
35443;BME280;21561;55.654;37.592;2024-01-15T02:48:30;97135.44;;;-8.58;100.00
35443;BME280;21561;55.654;37.592;2024-01-15T02:50:57;97136.44;;;-8.53;100.00
35443;BME280;21561;55.654;37.592;2024-01-15T02:53:24;97137.47;;;-8.46;100.00
35443;BME280;21561;55.654;37.592;2024-01-15T02:55:51;97127.47;;;-8.43;100.00
35443;BME280;21561;55.654;37.592;2024-01-15T02:58:18;97127.47;;;-8.43;100.00
35443;BME280;21561;55.654;37.592;2024-01-15T03:00:45;97122.47;;;-8.40;100.00
35443;BME280;21561;55.654;37.592;2024-01-15T03:03:13;97125.97;;;-8.35;100.00
35443;BME280;21561;55.654;37.592;2024-01-15T03:05:40;97123.59;;;-8.30;100.00
35443;BME280;21561;55.654;37.592;2024-01-15T03:08:07;97113.56;;;-8.29;100.00
35443;BME280;21561;55.654;37.592;2024-01-15T03:10:34;97111.06;;;-8.29;100.00
35443;BME280;21561;55.654;37.592;2024-01-15T03:13:01;97112.00;;;-8.25;100.00
35443;BME280;21561;55.654;37.592;2024-01-15T03:15:28;97115.41;;;-8.23;100.00
35443;BME280;21561;55.654;37.592;2024-01-15T03:17:55;97115.50;;;-8.18;100.00
35443;BME280;21561;55.654;37.592;2024-01-15T03:20:22;97115.63;;;-8.14;100.00
35443;BME280;21561;55.654;37.592;2024-01-15T03:22:49;97109.00;;;-8.10;100.00
35443;BME280;21561;55.654;37.592;2024-01-15T03:25:16;97108.22;;;-8.09;100.00
35443;BME280;21561;55.654;37.592;2024-01-15T03:27:43;97109.88;;;-8.08;100.00
35443;BME280;21561;55.654;37.592;2024-01-15T03:30:11;97105.75;;;-8.06;100.00
35443;BME280;21561;55.654;37.592;2024-01-15T03:32:38;97105.03;;;-8.02;100.00
35443;BME280;21561;55.654;37.592;2024-01-15T03:35:06;97107.59;;;-7.99;100.00
35443;BME280;21561;55.654;37.592;2024-01-15T03:37:33;97100.00;;;-8.02;100.00
35443;BME280;21561;55.654;37.592;2024-01-15T03:40:00;97100.06;;;-7.99;100.00
35443;BME280;21561;55.654;37.592;2024-01-15T03:42:29;97101.81;;;-7.96;100.00
35443;BME280;21561;55.654;37.592;2024-01-15T03:44:56;97095.97;;;-7.94;100.00
35443;BME280;21561;55.654;37.592;2024-01-15T03:47:23;97091.03;;;-7.91;100.00
35443;BME280;21561;55.654;37.592;2024-01-15T03:49:50;97086.81;;;-7.92;100.00
35443;BME280;21561;55.654;37.592;2024-01-15T03:52:17;97091.03;;;-7.91;100.00
35443;BME280;21561;55.654;37.592;2024-01-15T03:54:44;97093.66;;;-7.86;100.00
35443;BME280;21561;55.654;37.592;2024-01-15T03:57:11;97093.72;;;-7.83;100.00
35443;BME280;21561;55.654;37.592;2024-01-15T03:59:40;97092.97;;;-7.80;100.00
35443;BME280;21561;55.654;37.592;2024-01-15T04:02:08;97092.97;;;-7.79;100.00
35443;BME280;21561;55.654;37.592;2024-01-15T04:04:35;97089.66;;;-7.78;100.00
35443;BME280;21561;55.654;37.592;2024-01-15T04:07:02;97088.88;;;-7.75;100.00
35443;BME280;21561;55.654;37.592;2024-01-15T04:09:29;97080.44;;;-7.77;100.00
35443;BME280;21561;55.654;37.592;2024-01-15T04:11:56;97088.03;;;-7.76;100.00
35443;BME280;21561;55.654;37.592;2024-01-15T04:14:23;97080.50;;;-7.74;100.00
35443;BME280;21561;55.654;37.592;2024-01-15T04:16:50;97089.75;;;-7.75;100.00
35443;BME280;21561;55.654;37.592;2024-01-15T04:19:18;97087.22;;;-7.75;100.00
35443;BME280;21561;55.654;37.592;2024-01-15T04:21:45;97087.25;;;-7.73;100.00
35443;BME280;21561;55.654;37.592;2024-01-15T04:24:12;97093.97;;;-7.72;100.00
35443;BME280;21561;55.654;37.592;2024-01-15T04:26:39;97085.63;;;-7.71;100.00
35443;BME280;21561;55.654;37.592;2024-01-15T04:29:06;97080.69;;;-7.67;100.00
35443;BME280;21561;55.654;37.592;2024-01-15T04:31:32;97083.22;;;-7.65;100.00
35443;BME280;21561;55.654;37.592;2024-01-15T04:33:59;97074.00;;;-7.66;100.00
35443;BME280;21561;55.654;37.592;2024-01-15T04:36:27;97074.88;;;-7.64;100.00
35443;BME280;21561;55.654;37.592;2024-01-15T04:38:54;97079.91;;;-7.64;100.00
35443;BME280;21561;55.654;37.592;2024-01-15T04:41:20;97074.09;;;-7.61;100.00
35443;BME280;21561;55.654;37.592;2024-01-15T04:43:47;97066.66;;;-7.57;100.00
35443;BME280;21561;55.654;37.592;2024-01-15T04:46:14;97065.88;;;-7.53;100.00
35443;BME280;21561;55.654;37.592;2024-01-15T04:48:41;97075.16;;;-7.52;100.00
35443;BME280;21561;55.654;37.592;2024-01-15T04:51:09;97069.38;;;-7.47;100.00
35443;BME280;21561;55.654;37.592;2024-01-15T04:53:36;97073.56;;;-7.48;100.00
35443;BME280;21561;55.654;37.592;2024-01-15T04:56:03;97064.31;;;-7.47;100.00
35443;BME280;21561;55.654;37.592;2024-01-15T04:58:30;97068.56;;;-7.45;100.00
35443;BME280;21561;55.654;37.592;2024-01-15T05:00:57;97070.31;;;-7.42;100.00
35443;BME280;21561;55.654;37.592;2024-01-15T05:03:24;97068.72;;;-7.39;100.00
35443;BME280;21561;55.654;37.592;2024-01-15T05:05:51;97066.25;;;-7.37;100.00
35443;BME280;21561;55.654;37.592;2024-01-15T05:08:18;97068.00;;;-7.33;100.00
35443;BME280;21561;55.654;37.592;2024-01-15T05:10:45;97067.25;;;-7.29;100.00
35443;BME280;21561;55.654;37.592;2024-01-15T05:13:12;97067.31;;;-7.26;100.00
35443;BME280;21561;55.654;37.592;2024-01-15T05:15:39;97068.19;;;-7.24;100.00
35443;BME280;21561;55.654;37.592;2024-01-15T05:18:06;97064.88;;;-7.21;100.00
35443;BME280;21561;55.654;37.592;2024-01-15T05:20:34;97063.28;;;-7.18;100.00
35443;BME280;21561;55.654;37.592;2024-01-15T05:23:01;97064.19;;;-7.14;100.00
35443;BME280;21561;55.654;37.592;2024-01-15T05:25:28;97058.38;;;-7.12;100.00
35443;BME280;21561;55.654;37.592;2024-01-15T05:27:55;97051.69;;;-7.10;100.00
35443;BME280;21561;55.654;37.592;2024-01-15T05:30:22;97066.88;;;-7.06;100.00
35443;BME280;21561;55.654;37.592;2024-01-15T05:32:49;97063.56;;;-7.04;100.00
35443;BME280;21561;55.654;37.592;2024-01-15T05:35:16;97060.19;;;-7.04;100.00
35443;BME280;21561;55.654;37.592;2024-01-15T05:37:44;97059.47;;;-6.99;100.00
35443;BME280;21561;55.654;37.592;2024-01-15T05:40:12;97056.19;;;-6.96;100.00
35443;BME280;21561;55.654;37.592;2024-01-15T05:42:42;97060.38;;;-6.95;100.00
35443;BME280;21561;55.654;37.592;2024-01-15T05:45:09;97052.81;;;-6.95;100.00
35443;BME280;21561;55.654;37.592;2024-01-15T05:47:36;97052.06;;;-6.91;100.00
35443;BME280;21561;55.654;37.592;2024-01-15T05:50:04;97055.47;;;-6.89;100.00
35443;BME280;21561;55.654;37.592;2024-01-15T05:52:31;97061.41;;;-6.87;100.00
35443;BME280;21561;55.654;37.592;2024-01-15T05:54:58;97062.25;;;-6.86;100.00
35443;BME280;21561;55.654;37.592;2024-01-15T05:57:25;97062.34;;;-6.82;100.00
35443;BME280;21561;55.654;37.592;2024-01-15T05:59:53;97070.78;;;-6.80;100.00
35443;BME280;21561;55.654;37.592;2024-01-15T06:02:20;97069.09;;;-6.79;100.00
35443;BME280;21561;55.654;37.592;2024-01-15T06:04:47;97064.97;;;-6.76;100.00
35443;BME280;21561;55.654;37.592;2024-01-15T06:07:14;97075.94;;;-6.74;100.00
35443;BME280;21561;55.654;37.592;2024-01-15T06:09:40;97071.03;;;-6.67;100.00
35443;BME280;21561;55.654;37.592;2024-01-15T06:12:08;97060.13;;;-6.65;100.00
35443;BME280;21561;55.654;37.592;2024-01-15T06:14:35;97059.31;;;-6.62;100.00
35443;BME280;21561;55.654;37.592;2024-01-15T06:17:02;97064.47;;;-6.58;100.00
35443;BME280;21561;55.654;37.592;2024-01-15T06:19:29;97062.00;;;-6.55;100.00
35443;BME280;21561;55.654;37.592;2024-01-15T06:21:56;97054.47;;;-6.53;100.00
35443;BME280;21561;55.654;37.592;2024-01-15T06:24:23;97068.00;;;-6.48;100.00
35443;BME280;21561;55.654;37.592;2024-01-15T06:26:50;97058.81;;;-6.46;100.00
35443;BME280;21561;55.654;37.592;2024-01-15T06:29:18;97063.06;;;-6.43;100.00
35443;BME280;21561;55.654;37.592;2024-01-15T06:31:44;97063.97;;;-6.40;100.00
35443;BME280;21561;55.654;37.592;2024-01-15T06:34:12;97066.56;;;-6.35;100.00
35443;BME280;21561;55.654;37.592;2024-01-15T06:36:39;97062.38;;;-6.35;100.00
35443;BME280;21561;55.654;37.592;2024-01-15T06:39:06;97068.38;;;-6.28;100.00
35443;BME280;21561;55.654;37.592;2024-01-15T06:41:33;97061.72;;;-6.24;100.00
35443;BME280;21561;55.654;37.592;2024-01-15T06:44:00;97075.28;;;-6.18;100.00
35443;BME280;21561;55.654;37.592;2024-01-15T06:46:27;97077.84;;;-6.16;100.00
35443;BME280;21561;55.654;37.592;2024-01-15T06:48:53;97071.13;;;-6.14;100.00
35443;BME280;21561;55.654;37.592;2024-01-15T06:51:21;97065.28;;;-6.13;100.00
35443;BME280;21561;55.654;37.592;2024-01-15T06:53:48;97068.72;;;-6.08;100.00
35443;BME280;21561;55.654;37.592;2024-01-15T06:56:15;97068.75;;;-6.05;100.00
35443;BME280;21561;55.654;37.592;2024-01-15T06:58:42;97073.09;;;-5.98;100.00
35443;BME280;21561;55.654;37.592;2024-01-15T07:01:09;97072.28;;;-5.97;100.00
35443;BME280;21561;55.654;37.592;2024-01-15T07:03:37;97065.53;;;-5.95;100.00
35443;BME280;21561;55.654;37.592;2024-01-15T07:06:04;97065.66;;;-5.88;100.00
35443;BME280;21561;55.654;37.592;2024-01-15T07:08:31;97067.38;;;-5.86;100.00
35443;BME280;21561;55.654;37.592;2024-01-15T07:10:58;97071.59;;;-5.83;100.00
35443;BME280;21561;55.654;37.592;2024-01-15T07:13:25;97073.38;;;-5.79;100.00
35443;BME280;21561;55.654;37.592;2024-01-15T07:15:52;97062.41;;;-5.78;100.00
35443;BME280;21561;55.654;37.592;2024-01-15T07:18:19;97061.63;;;-5.76;100.00
35443;BME280;21561;55.654;37.592;2024-01-15T07:20:46;97072.63;;;-5.73;100.00
35443;BME280;21561;55.654;37.592;2024-01-15T07:23:13;97071.03;;;-5.67;100.00
35443;BME280;21561;55.654;37.592;2024-01-15T07:25:40;97064.38;;;-5.60;100.00
35443;BME280;21561;55.654;37.592;2024-01-15T07:28:07;97060.31;;;-5.52;100.00
35443;BME280;21561;55.654;37.592;2024-01-15T07:30:34;97057.81;;;-5.47;100.00
35443;BME280;21561;55.654;37.592;2024-01-15T07:33:01;97062.94;;;-5.44;100.00
35443;BME280;21561;55.654;37.592;2024-01-15T07:35:31;97060.41;;;-5.44;100.00
35443;BME280;21561;55.654;37.592;2024-01-15T07:37:58;97068.81;;;-5.44;100.00
35443;BME280;21561;55.654;37.592;2024-01-15T07:40:25;97054.53;;;-5.43;100.00
35443;BME280;21561;55.654;37.592;2024-01-15T07:42:52;97055.41;;;-5.41;100.00
35443;BME280;21561;55.654;37.592;2024-01-15T07:45:20;97066.38;;;-5.39;100.00
35443;BME280;21561;55.654;37.592;2024-01-15T07:47:47;97058.81;;;-5.38;100.00
35443;BME280;21561;55.654;37.592;2024-01-15T07:50:14;97064.81;;;-5.31;100.00
35443;BME280;21561;55.654;37.592;2024-01-15T07:52:41;97057.28;;;-5.26;100.00
35443;BME280;21561;55.654;37.592;2024-01-15T07:55:11;97058.19;;;-5.23;100.00
35443;BME280;21561;55.654;37.592;2024-01-15T07:57:38;97052.34;;;-5.17;100.00
35443;BME280;21561;55.654;37.592;2024-01-15T08:00:05;97059.97;;;-5.14;100.00
35443;BME280;21561;55.654;37.592;2024-01-15T08:02:32;97058.28;;;-5.13;100.00
35443;BME280;21561;55.654;37.592;2024-01-15T08:05:03;97056.66;;;-5.11;100.00
35443;BME280;21561;55.654;37.592;2024-01-15T08:07:30;97055.00;;;-5.06;100.00
35443;BME280;21561;55.654;37.592;2024-01-15T08:09:57;97057.56;;;-5.05;100.00
35443;BME280;21561;55.654;37.592;2024-01-15T08:12:25;97059.28;;;-5.04;100.00
35443;BME280;21561;55.654;37.592;2024-01-15T08:14:52;97065.19;;;-5.03;100.00
35443;BME280;21561;55.654;37.592;2024-01-15T08:17:19;97064.38;;;-5.01;100.00
35443;BME280;21561;55.654;37.592;2024-01-15T08:19:46;97065.28;;;-4.97;100.00
35443;BME280;21561;55.654;37.592;2024-01-15T08:22:13;97056.03;;;-4.92;100.00
35443;BME280;21561;55.654;37.592;2024-01-15T08:24:40;97056.94;;;-4.90;100.00
35443;BME280;21561;55.654;37.592;2024-01-15T08:27:07;97060.31;;;-4.88;100.00
35443;BME280;21561;55.654;37.592;2024-01-15T08:29:34;97061.22;;;-4.84;100.00
35443;BME280;21561;55.654;37.592;2024-01-15T08:32:01;97059.53;;;-4.82;100.00
35443;BME280;21561;55.654;37.592;2024-01-15T08:34:29;97064.63;;;-4.81;100.00
35443;BME280;21561;55.654;37.592;2024-01-15T08:36:58;97060.44;;;-4.78;100.00
35443;BME280;21561;55.654;37.592;2024-01-15T08:39:25;97063.78;;;-4.80;100.00
35443;BME280;21561;55.654;37.592;2024-01-15T08:41:52;97073.94;;;-4.76;100.00
35443;BME280;21561;55.654;37.592;2024-01-15T08:44:19;97078.16;;;-4.77;100.00
35443;BME280;21561;55.654;37.592;2024-01-15T08:46:46;97090.00;;;-4.74;100.00
35443;BME280;21561;55.654;37.592;2024-01-15T08:49:13;97067.22;;;-4.74;100.00
35443;BME280;21561;55.654;37.592;2024-01-15T08:51:40;97068.94;;;-4.73;100.00
35443;BME280;21561;55.654;37.592;2024-01-15T08:54:07;97060.53;;;-4.69;100.00
35443;BME280;21561;55.654;37.592;2024-01-15T08:56:35;97066.44;;;-4.69;100.00
35443;BME280;21561;55.654;37.592;2024-01-15T08:59:02;97071.59;;;-4.61;100.00
35443;BME280;21561;55.654;37.592;2024-01-15T09:01:29;97065.78;;;-4.54;100.00
35443;BME280;21561;55.654;37.592;2024-01-15T09:03:56;97060.72;;;-4.51;100.00
35443;BME280;21561;55.654;37.592;2024-01-15T09:06:23;97062.47;;;-4.47;100.00
35443;BME280;21561;55.654;37.592;2024-01-15T09:08:50;97065.88;;;-4.42;100.00
35443;BME280;21561;55.654;37.592;2024-01-15T09:11:17;97061.69;;;-4.41;100.00
35443;BME280;21561;55.654;37.592;2024-01-15T09:13:44;97063.38;;;-4.40;100.00
35443;BME280;21561;55.654;37.592;2024-01-15T09:16:11;97066.81;;;-4.35;100.00
35443;BME280;21561;55.654;37.592;2024-01-15T09:18:38;97070.22;;;-4.31;100.00
35443;BME280;21561;55.654;37.592;2024-01-15T09:21:05;97067.72;;;-4.30;100.00
35443;BME280;21561;55.654;37.592;2024-01-15T09:23:32;97063.56;;;-4.20;100.00
35443;BME280;21561;55.654;37.592;2024-01-15T09:25:59;97066.97;;;-4.16;100.00
35443;BME280;21561;55.654;37.592;2024-01-15T09:28:26;97054.38;;;-4.12;100.00
35443;BME280;21561;55.654;37.592;2024-01-15T09:30:53;97059.47;;;-4.06;100.00
35443;BME280;21561;55.654;37.592;2024-01-15T09:33:20;97056.19;;;-3.97;100.00
35443;BME280;21561;55.654;37.592;2024-01-15T09:35:47;97056.25;;;-3.91;100.00
35443;BME280;21561;55.654;37.592;2024-01-15T09:38:14;97056.28;;;-3.89;100.00
35443;BME280;21561;55.654;37.592;2024-01-15T09:40:43;97054.59;;;-3.87;100.00
35443;BME280;21561;55.654;37.592;2024-01-15T09:43:12;97050.38;;;-3.87;100.00
35443;BME280;21561;55.654;37.592;2024-01-15T09:45:42;97061.34;;;-3.86;100.00
35443;BME280;21561;55.654;37.592;2024-01-15T09:48:09;97058.03;;;-3.82;100.00
35443;BME280;21561;55.654;37.592;2024-01-15T09:50:36;97052.94;;;-3.79;100.00
35443;BME280;21561;55.654;37.592;2024-01-15T09:53:05;97076.63;;;-3.77;100.00
35443;BME280;21561;55.654;37.592;2024-01-15T09:55:32;97060.59;;;-3.76;100.00
35443;BME280;21561;55.654;37.592;2024-01-15T09:58:00;97067.34;;;-3.76;100.00
35443;BME280;21561;55.654;37.592;2024-01-15T10:00:29;97074.97;;;-3.72;100.00
35443;BME280;21561;55.654;37.592;2024-01-15T10:02:58;97076.66;;;-3.74;100.00
35443;BME280;21561;55.654;37.592;2024-01-15T10:05:27;97075.00;;;-3.69;100.00
35443;BME280;21561;55.654;37.592;2024-01-15T10:07:56;97080.06;;;-3.69;100.00
35443;BME280;21561;55.654;37.592;2024-01-15T10:10:23;97070.78;;;-3.67;100.00
35443;BME280;21561;55.654;37.592;2024-01-15T10:12:50;97076.72;;;-3.65;100.00
35443;BME280;21561;55.654;37.592;2024-01-15T10:15:17;97061.50;;;-3.65;100.00
35443;BME280;21561;55.654;37.592;2024-01-15T10:17:45;97075.03;;;-3.67;100.00
35443;BME280;21561;55.654;37.592;2024-01-15T10:20:12;97069.94;;;-3.67;100.00
35443;BME280;21561;55.654;37.592;2024-01-15T10:22:41;97059.78;;;-3.69;100.00
35443;BME280;21561;55.654;37.592;2024-01-15T10:25:15;97071.63;;;-3.69;100.00
35443;BME280;21561;55.654;37.592;2024-01-15T10:27:43;97076.69;;;-3.71;100.00
35443;BME280;21561;55.654;37.592;2024-01-15T10:30:11;97075.81;;;-3.70;100.00
35443;BME280;21561;55.654;37.592;2024-01-15T10:32:38;97064.84;;;-3.72;100.00
35443;BME280;21561;55.654;37.592;2024-01-15T10:35:07;97071.66;;;-3.68;100.00
35443;BME280;21561;55.654;37.592;2024-01-15T10:37:35;97069.94;;;-3.69;100.00
35443;BME280;21561;55.654;37.592;2024-01-15T10:40:02;97070.78;;;-3.71;100.00
35443;BME280;21561;55.654;37.592;2024-01-15T10:42:33;97061.50;;;-3.68;100.00
35443;BME280;21561;55.654;37.592;2024-01-15T10:45:00;97058.13;;;-3.67;100.00
35443;BME280;21561;55.654;37.592;2024-01-15T10:47:29;97070.84;;;-3.62;100.00
35443;BME280;21561;55.654;37.592;2024-01-15T10:49:57;97057.31;;;-3.64;100.00
35443;BME280;21561;55.654;37.592;2024-01-15T10:52:25;97064.91;;;-3.62;100.00
35443;BME280;21561;55.654;37.592;2024-01-15T10:54:53;97052.22;;;-3.62;100.00
35443;BME280;21561;55.654;37.592;2024-01-15T10:57:21;97054.75;;;-3.62;100.00
35443;BME280;21561;55.654;37.592;2024-01-15T10:59:49;97058.13;;;-3.65;100.00
35443;BME280;21561;55.654;37.592;2024-01-15T11:02:16;97060.69;;;-3.63;100.00
35443;BME280;21561;55.654;37.592;2024-01-15T11:04:44;97060.69;;;-3.59;100.00
35443;BME280;21561;55.654;37.592;2024-01-15T11:07:11;97064.94;;;-3.59;100.00
35443;BME280;21561;55.654;37.592;2024-01-15T11:09:39;97047.19;;;-3.58;100.00
35443;BME280;21561;55.654;37.592;2024-01-15T11:12:10;97056.53;;;-3.57;100.00
35443;BME280;21561;55.654;37.592;2024-01-15T11:15:20;97054.84;;;-3.50;100.00
35443;BME280;21561;55.654;37.592;2024-01-15T11:17:58;97050.63;;;-3.53;100.00
35443;BME280;21561;55.654;37.592;2024-01-15T11:20:27;97062.44;;;-3.55;100.00
35443;BME280;21561;55.654;37.592;2024-01-15T11:22:54;97053.13;;;-3.54;100.00
35443;BME280;21561;55.654;37.592;2024-01-15T11:25:24;97045.59;;;-3.50;100.00
35443;BME280;21561;55.654;37.592;2024-01-15T11:27:52;97051.50;;;-3.49;100.00
35443;BME280;21561;55.654;37.592;2024-01-15T11:30:24;97045.56;;;-3.47;100.00
35443;BME280;21561;55.654;37.592;2024-01-15T11:32:52;97041.34;;;-3.49;100.00
35443;BME280;21561;55.654;37.592;2024-01-15T11:35:20;97048.13;;;-3.47;100.00
35443;BME280;21561;55.654;37.592;2024-01-15T11:43:00;97041.34;;;-3.49;100.00
35443;BME280;21561;55.654;37.592;2024-01-15T11:45:27;97033.75;;;-3.49;100.00
35443;BME280;21561;55.654;37.592;2024-01-15T11:48:09;97033.78;;;-3.46;100.00
35443;BME280;21561;55.654;37.592;2024-01-15T11:50:50;97035.44;;;-3.45;100.00
35443;BME280;21561;55.654;37.592;2024-01-15T11:55:51;97051.50;;;-3.49;100.00
35443;BME280;21561;55.654;37.592;2024-01-15T11:58:18;97046.41;;;-3.52;100.00
35443;BME280;21561;55.654;37.592;2024-01-15T12:00:48;97048.94;;;-3.52;100.00
35443;BME280;21561;55.654;37.592;2024-01-15T12:03:22;97053.19;;;-3.48;100.00
35443;BME280;21561;55.654;37.592;2024-01-15T12:05:52;97045.59;;;-3.48;100.00
35443;BME280;21561;55.654;37.592;2024-01-15T12:08:23;97038.81;;;-3.48;100.00
35443;BME280;21561;55.654;37.592;2024-01-15T12:10:50;97050.66;;;-3.48;100.00
35443;BME280;21561;55.654;37.592;2024-01-15T12:13:18;97049.78;;;-3.50;100.00
35443;BME280;21561;55.654;37.592;2024-01-15T12:15:47;97048.97;;;-3.48;100.00
35443;BME280;21561;55.654;37.592;2024-01-15T12:18:17;97038.00;;;-3.45;100.00
35443;BME280;21561;55.654;37.592;2024-01-15T12:20:45;97041.38;;;-3.46;100.00
35443;BME280;21561;55.654;37.592;2024-01-15T12:23:16;97043.91;;;-3.48;100.00
35443;BME280;21561;55.654;37.592;2024-01-15T12:25:44;97051.50;;;-3.49;100.00
35443;BME280;21561;55.654;37.592;2024-01-15T12:43:36;97055.06;;;-3.16;100.00
35443;BME280;21561;55.654;37.592;2024-01-15T12:46:03;97046.56;;;-3.21;100.00
35443;BME280;21561;55.654;37.592;2024-01-15T12:48:30;97046.56;;;-3.28;100.00
35443;BME280;21561;55.654;37.592;2024-01-15T12:50:57;97044.00;;;-3.31;100.00
35443;BME280;21561;55.654;37.592;2024-01-15T12:53:24;97035.53;;;-3.37;100.00
35443;BME280;21561;55.654;37.592;2024-01-15T12:55:51;97039.72;;;-3.38;100.00
35443;BME280;21561;55.654;37.592;2024-01-15T12:58:18;97036.38;;;-3.37;100.00
35443;BME280;21561;55.654;37.592;2024-01-15T13:00:47;97047.34;;;-3.36;100.00
35443;BME280;21561;55.654;37.592;2024-01-15T13:03:14;97054.09;;;-3.38;100.00
35443;BME280;21561;55.654;37.592;2024-01-15T13:05:41;97049.06;;;-3.35;100.00